createdAt,value
2023-05-20T00:01:38.828Z,9.90
2023-05-20T00:04:10.765Z,9.50
2023-05-20T00:06:42.677Z,8.70
2023-05-20T00:09:14.357Z,9.60
2023-05-20T00:11:46.586Z,9.70
2023-05-20T00:14:18.451Z,9.20
2023-05-20T00:16:50.162Z,9.40
2023-05-20T00:19:22.309Z,8.70
2023-05-20T00:21:54.152Z,9.10
2023-05-20T00:24:26.431Z,9.60
2023-05-20T00:26:58.080Z,8.70
2023-05-20T00:29:30.769Z,8.10
2023-05-20T00:32:02.475Z,9.70
2023-05-20T00:34:34.242Z,6.40
2023-05-20T00:37:06.168Z,9.50
2023-05-20T00:39:38.122Z,8.90
2023-05-20T00:42:09.980Z,10.70
2023-05-20T00:44:42.183Z,12.50
2023-05-20T00:47:14.110Z,12.40
2023-05-20T00:49:48.171Z,12.20
2023-05-20T00:52:23.666Z,10.90
2023-05-20T00:54:55.573Z,7.60
2023-05-20T00:57:27.518Z,10.10
2023-05-20T00:59:59.631Z,9.10
2023-05-20T01:02:31.713Z,9.00
2023-05-20T01:05:03.825Z,8.60
2023-05-20T01:07:35.773Z,7.80
2023-05-20T01:10:09.447Z,8.70
2023-05-20T01:12:44.911Z,8.60
2023-05-20T01:15:18.813Z,7.90
2023-05-20T01:17:57.967Z,8.50
2023-05-20T01:20:33.136Z,7.40
2023-05-20T01:23:05.224Z,8.10
2023-05-20T01:25:37.259Z,7.80
2023-05-20T01:28:09.481Z,7.70
2023-05-20T01:30:46.438Z,7.30
2023-05-20T01:33:21.841Z,7.20
2023-05-20T01:35:54.175Z,7.20
2023-05-20T01:38:27.122Z,7.60
2023-05-20T01:41:00.616Z,6.50
2023-05-20T01:43:32.765Z,7.70
2023-05-20T01:46:06.527Z,5.30
2023-05-20T01:48:38.502Z,7.10
2023-05-20T01:51:10.392Z,7.00
2023-05-20T01:53:42.073Z,4.70
2023-05-20T01:56:14.345Z,7.00
2023-05-20T01:58:46.428Z,6.50
2023-05-20T02:01:18.212Z,6.90
2023-05-20T02:03:49.904Z,6.60
2023-05-20T02:06:22.023Z,6.70
2023-05-20T02:08:53.649Z,6.70
2023-05-20T02:11:29.067Z,7.30
2023-05-20T02:14:01.934Z,6.30
2023-05-20T02:16:33.862Z,7.00
2023-05-20T02:19:05.673Z,6.80
2023-05-20T02:21:37.268Z,6.10
2023-05-20T02:24:09.383Z,6.60
2023-05-20T02:26:41.209Z,6.90
2023-05-20T02:29:13.348Z,6.10
2023-05-20T02:31:44.935Z,6.00
2023-05-20T02:34:16.643Z,6.40
2023-05-20T02:36:48.471Z,6.10
2023-05-20T02:39:20.160Z,6.50
2023-05-20T02:41:51.811Z,6.50
2023-05-20T02:44:23.485Z,6.40
2023-05-20T02:46:55.412Z,6.40
2023-05-20T02:49:27.112Z,6.70
2023-05-20T02:52:00.141Z,6.60
2023-05-20T02:54:31.746Z,7.20
2023-05-20T02:57:03.772Z,7.30
2023-05-20T02:59:35.527Z,7.20
2023-05-20T03:02:07.540Z,7.00
2023-05-20T03:04:41.114Z,6.60
2023-05-20T03:07:13.256Z,7.10
2023-05-20T03:09:44.927Z,6.90
2023-05-20T03:12:16.666Z,6.60
2023-05-20T03:14:48.384Z,4.80
2023-05-20T03:17:20.124Z,7.00
2023-05-20T03:19:51.875Z,4.50
2023-05-20T03:22:23.562Z,6.80
2023-05-20T03:24:55.803Z,7.10
2023-05-20T03:27:28.071Z,7.40
2023-05-20T03:29:59.674Z,7.00
2023-05-20T03:32:31.432Z,6.80
2023-05-20T03:35:03.213Z,7.20
2023-05-20T03:37:35.301Z,6.90
2023-05-20T03:40:10.390Z,7.30
2023-05-20T03:42:42.311Z,7.10
2023-05-20T03:45:14.333Z,6.80
2023-05-20T03:48:03.419Z,6.90
2023-05-20T03:50:36.846Z,7.00
2023-05-20T03:53:09.058Z,6.60
2023-05-20T03:55:44.024Z,6.90
2023-05-20T03:58:16.808Z,6.70
2023-05-20T04:00:48.874Z,7.40
2023-05-20T04:03:20.705Z,4.80
2023-05-20T04:05:53.304Z,7.60
2023-05-20T04:08:26.406Z,7.20
2023-05-20T04:10:59.847Z,6.70
2023-05-20T04:13:31.813Z,7.10
2023-05-20T04:16:05.301Z,7.70
2023-05-20T04:18:39.068Z,7.10
2023-05-20T04:21:11.246Z,7.00
2023-05-20T04:23:43.024Z,7.30
2023-05-20T04:26:14.604Z,6.90
2023-05-20T04:28:48.696Z,6.90
2023-05-20T04:31:20.854Z,7.30
2023-05-20T04:33:52.567Z,6.40
2023-05-20T04:36:28.611Z,7.50
2023-05-20T04:39:00.535Z,7.20
2023-05-20T04:41:32.293Z,7.00
2023-05-20T04:44:04.090Z,7.40
2023-05-20T04:46:35.987Z,7.30
2023-05-20T04:49:08.402Z,7.20
2023-05-20T04:51:41.890Z,7.00
2023-05-20T04:54:13.842Z,8.30
2023-05-20T04:56:45.475Z,7.80
2023-05-20T04:59:17.110Z,6.70
2023-05-20T05:01:48.849Z,7.40
2023-05-20T05:04:20.994Z,7.30
2023-05-20T05:06:52.720Z,7.90
2023-05-20T05:09:24.470Z,7.40
2023-05-20T05:11:57.778Z,6.90
2023-05-20T05:14:29.523Z,5.20
2023-05-20T05:17:01.149Z,7.60
2023-05-20T05:19:34.885Z,7.30
2023-05-20T05:22:07.552Z,7.40
2023-05-20T05:24:39.670Z,9.10
2023-05-20T05:27:11.406Z,8.20
2023-05-20T05:29:43.143Z,7.30
2023-05-20T05:32:14.865Z,7.90
2023-05-20T05:34:46.716Z,5.30
2023-05-20T05:37:18.536Z,8.70
2023-05-20T05:39:50.651Z,7.20
2023-05-20T05:42:22.593Z,8.60
2023-05-20T05:44:54.908Z,8.60
2023-05-20T05:47:32.431Z,8.50
2023-05-20T05:50:04.781Z,7.70
2023-05-20T05:52:37.671Z,8.40
2023-05-20T05:55:11.969Z,8.40
2023-05-20T05:57:44.009Z,8.30
2023-05-20T06:00:18.907Z,8.30
2023-05-20T06:02:50.871Z,8.30
2023-05-20T06:05:45.856Z,8.80
2023-05-20T06:08:17.702Z,9.10
2023-05-20T06:10:51.352Z,9.30
2023-05-20T06:13:23.165Z,8.20
2023-05-20T06:15:55.003Z,9.00
2023-05-20T06:18:30.223Z,8.10
2023-05-20T06:21:06.060Z,8.40
2023-05-20T06:23:38.351Z,8.10
2023-05-20T06:26:13.526Z,7.90
2023-05-20T06:28:45.410Z,7.80
2023-05-20T06:31:17.361Z,8.20
2023-05-20T06:33:49.168Z,8.70
2023-05-20T06:36:21.025Z,7.50
2023-05-20T06:38:52.929Z,9.30
2023-05-20T06:41:24.658Z,7.70
2023-05-20T06:43:56.374Z,8.30
2023-05-20T06:46:56.676Z,7.60
2023-05-20T06:49:28.506Z,7.10
2023-05-20T06:52:00.266Z,6.50
2023-05-20T06:54:34.122Z,8.50
2023-05-20T06:57:06.512Z,7.90
2023-05-20T06:59:38.434Z,7.60
2023-05-20T07:02:11.786Z,8.00
2023-05-20T07:04:43.589Z,8.60
2023-05-20T07:07:17.265Z,8.20
2023-05-20T07:09:50.062Z,8.10
2023-05-20T07:12:21.755Z,8.20
2023-05-20T07:14:53.857Z,8.30
2023-05-20T07:17:26.771Z,7.30
2023-05-20T07:19:58.738Z,7.00
2023-05-20T07:22:31.250Z,8.30
2023-05-20T07:25:14.214Z,7.40
2023-05-20T07:27:46.207Z,7.50
2023-05-20T07:30:17.898Z,8.80
2023-05-20T07:32:58.041Z,7.90
2023-05-20T07:35:29.974Z,8.90
2023-05-20T07:38:01.767Z,9.80
2023-05-20T07:40:34.150Z,9.10
2023-05-20T07:43:06.004Z,8.30
2023-05-20T07:45:38.480Z,7.80
2023-05-20T07:48:12.994Z,9.40
2023-05-20T07:50:45.663Z,8.40
2023-05-20T07:53:17.959Z,9.00
2023-05-20T07:55:50.190Z,8.70
2023-05-20T07:58:22.822Z,8.70
2023-05-20T08:00:55.253Z,9.90
2023-05-20T08:03:27.263Z,9.90
2023-05-20T08:06:27.310Z,9.30
2023-05-20T08:09:01.328Z,8.80
2023-05-20T08:11:36.837Z,10.30
2023-05-20T08:14:09.118Z,8.80
2023-05-20T08:16:44.898Z,9.90
2023-05-20T08:19:16.881Z,10.20
2023-05-20T08:21:52.445Z,8.80
2023-05-20T08:24:24.940Z,8.10
2023-05-20T08:26:56.725Z,9.40
2023-05-20T08:29:29.521Z,10.40
2023-05-20T08:32:03.191Z,12.10
2023-05-20T08:34:35.114Z,11.60
2023-05-20T08:37:07.103Z,10.50
2023-05-20T08:39:39.104Z,10.80
2023-05-20T08:42:13.338Z,9.90
2023-05-20T08:44:45.672Z,11.70
2023-05-20T08:47:17.603Z,11.00
2023-05-20T08:49:49.840Z,11.10
2023-05-20T08:52:24.401Z,11.60
2023-05-20T08:54:58.128Z,11.30
2023-05-20T08:57:30.626Z,11.10
2023-05-20T09:00:08.370Z,11.30
2023-05-20T09:02:40.960Z,11.10
2023-05-20T09:05:14.723Z,11.30
2023-05-20T09:07:46.671Z,11.60
2023-05-20T09:10:18.400Z,11.80
2023-05-20T09:12:50.140Z,11.90
2023-05-20T09:15:22.088Z,11.50
2023-05-20T09:17:53.796Z,10.40
2023-05-20T09:20:26.417Z,11.30
2023-05-20T09:23:02.231Z,11.40
2023-05-20T09:25:34.695Z,12.70
2023-05-20T09:28:09.125Z,12.50
2023-05-20T09:30:41.004Z,12.40
2023-05-20T09:33:14.237Z,13.60
2023-05-20T09:35:46.546Z,12.30
2023-05-20T09:38:19.648Z,12.80
2023-05-20T09:40:52.236Z,12.80
2023-05-20T09:43:24.485Z,12.70
2023-05-20T09:45:56.917Z,12.80
2023-05-20T09:50:59.849Z,13.10
2023-05-20T09:53:31.965Z,14.40
2023-05-20T09:56:04.120Z,14.90
2023-05-20T09:58:37.117Z,14.30
2023-05-20T10:01:10.284Z,12.60
2023-05-20T10:03:44.248Z,12.50
2023-05-20T10:06:42.067Z,13.00
2023-05-20T10:09:33.230Z,13.20
2023-05-20T10:12:12.798Z,13.10
2023-05-20T10:14:56.684Z,13.00
2023-05-20T10:17:42.810Z,12.40
2023-05-20T10:20:14.852Z,12.60
2023-05-20T10:22:55.908Z,12.70
2023-05-20T10:25:29.453Z,13.00
2023-05-20T10:28:11.883Z,13.50
2023-05-20T10:30:52.186Z,13.70
2023-05-20T10:33:23.850Z,13.20
2023-05-20T10:35:58.953Z,12.90
2023-05-20T10:38:30.897Z,11.80
2023-05-20T10:41:12.188Z,11.40
2023-05-20T10:43:44.834Z,11.60
2023-05-20T10:46:32.560Z,12.10
2023-05-20T10:49:18.212Z,12.70
2023-05-20T10:51:50.250Z,12.10
2023-05-20T10:54:23.008Z,14.20
2023-05-20T10:56:55.936Z,12.70
2023-05-20T10:59:28.087Z,12.20
2023-05-20T11:02:00.529Z,12.60
2023-05-20T11:04:33.652Z,13.70
2023-05-20T11:07:05.747Z,14.40
2023-05-20T11:09:37.717Z,14.80
2023-05-20T11:12:09.857Z,15.30
2023-05-20T11:14:41.599Z,14.10
2023-05-20T11:17:13.712Z,14.10
2023-05-20T11:19:45.618Z,13.40
2023-05-20T11:22:17.382Z,12.80
2023-05-20T11:24:49.210Z,13.00
2023-05-20T11:27:21.541Z,12.80
2023-05-20T11:29:53.678Z,13.10
2023-05-20T11:32:26.948Z,13.20
2023-05-20T11:34:58.755Z,11.80
2023-05-20T11:37:31.703Z,13.50
2023-05-20T11:42:44.962Z,11.90
2023-05-20T11:45:17.532Z,12.70
2023-05-20T11:47:59.386Z,12.10
2023-05-20T11:50:35.750Z,11.80
2023-05-20T11:53:08.993Z,11.20
2023-05-20T11:55:49.701Z,12.10
2023-05-20T11:58:24.137Z,11.80
2023-05-20T12:01:02.244Z,12.00
2023-05-20T12:03:38.911Z,11.80
2023-05-20T12:06:12.635Z,12.20
2023-05-20T12:08:44.779Z,12.20
2023-05-20T12:11:16.978Z,12.30
2023-05-20T12:13:48.732Z,11.70
2023-05-20T12:16:20.414Z,11.60
2023-05-20T12:18:52.507Z,11.60
2023-05-20T12:21:24.379Z,11.90
2023-05-20T12:23:58.010Z,11.20
2023-05-20T12:26:31.598Z,11.30
2023-05-20T12:29:03.922Z,11.30
2023-05-20T12:31:36.015Z,13.10
2023-05-20T12:34:07.705Z,10.80
2023-05-20T12:36:39.496Z,10.70
2023-05-20T12:39:12.552Z,11.40
2023-05-20T12:44:14.462Z,10.80
2023-05-20T12:46:46.282Z,11.00
2023-05-20T12:49:18.003Z,11.10
2023-05-20T12:51:49.730Z,11.20
2023-05-20T12:54:23.028Z,12.30
2023-05-20T12:56:54.869Z,11.20
2023-05-20T12:59:26.518Z,11.20
2023-05-20T13:01:58.301Z,11.30
2023-05-20T13:04:29.989Z,10.90
2023-05-20T13:07:02.090Z,11.70
2023-05-20T13:09:34.546Z,10.80
2023-05-20T13:12:07.010Z,10.00
2023-05-20T13:14:38.732Z,9.90
2023-05-20T13:17:10.502Z,11.20
2023-05-20T13:19:42.710Z,12.40
2023-05-20T13:22:14.488Z,11.50
2023-05-20T13:24:48.588Z,12.20
2023-05-20T13:27:20.387Z,12.00
2023-05-20T13:29:52.200Z,10.60
2023-05-20T13:32:23.999Z,10.10
2023-05-20T13:34:56.935Z,11.60
2023-05-20T13:37:29.116Z,12.80
2023-05-20T13:40:01.226Z,11.20
2023-05-20T13:42:33.245Z,11.60
2023-05-20T13:45:06.126Z,11.80
2023-05-20T13:47:37.951Z,11.20
2023-05-20T13:50:12.296Z,11.80
2023-05-20T13:52:44.091Z,13.30
2023-05-20T13:55:16.319Z,12.20
2023-05-20T13:57:48.171Z,12.00
2023-05-20T14:00:20.607Z,12.30
2023-05-20T14:02:52.302Z,11.70
2023-05-20T14:05:24.138Z,11.90
2023-05-20T14:07:55.855Z,12.30
2023-05-20T14:10:28.505Z,13.80
2023-05-20T14:13:02.181Z,11.60
2023-05-20T14:15:34.296Z,12.30
2023-05-20T14:18:06.271Z,11.90
2023-05-20T14:20:38.104Z,11.80
2023-05-20T14:23:09.952Z,12.90
2023-05-20T14:25:41.895Z,12.50
2023-05-20T14:28:13.666Z,12.90
2023-05-20T14:30:45.398Z,13.50
2023-05-20T14:33:17.427Z,12.80
2023-05-20T14:35:49.387Z,12.40
2023-05-20T14:38:21.818Z,12.80
2023-05-20T14:43:23.831Z,11.80
2023-05-20T14:45:56.087Z,12.80
2023-05-20T14:48:27.845Z,11.30
2023-05-20T14:50:59.690Z,11.30
2023-05-20T14:53:31.382Z,12.40
2023-05-20T14:56:03.209Z,13.30
2023-05-20T14:58:34.895Z,12.50
2023-05-20T15:01:06.606Z,12.30
2023-05-20T15:03:39.941Z,12.80
2023-05-20T15:06:11.833Z,11.80
2023-05-20T15:08:43.517Z,13.60
2023-05-20T15:11:15.154Z,12.00
2023-05-20T15:13:48.186Z,12.90
2023-05-20T15:16:20.070Z,12.80
2023-05-20T15:18:51.878Z,13.00
2023-05-20T15:21:23.633Z,12.30
2023-05-20T15:23:55.449Z,13.20
2023-05-20T15:26:27.713Z,13.50
2023-05-20T15:28:59.384Z,12.40
2023-05-20T15:31:31.551Z,12.90
2023-05-20T15:34:03.400Z,13.10
2023-05-20T15:36:35.498Z,12.30
2023-05-20T15:39:07.295Z,11.90
2023-05-20T15:41:40.634Z,12.50
2023-05-20T15:44:12.851Z,12.00
2023-05-20T15:46:46.497Z,12.60
2023-05-20T15:49:18.729Z,12.80
2023-05-20T15:52:02.433Z,13.40
2023-05-20T15:54:36.034Z,12.80
2023-05-20T15:57:08.123Z,13.40
2023-05-20T15:59:40.174Z,13.40
2023-05-20T16:02:11.921Z,12.00
2023-05-20T16:04:43.790Z,12.30
2023-05-20T16:07:15.815Z,12.50
2023-05-20T16:09:47.534Z,12.00
2023-05-20T16:12:19.602Z,13.20
2023-05-20T16:14:51.292Z,12.70
2023-05-20T16:17:23.048Z,12.20
2023-05-20T16:19:55.109Z,12.80
2023-05-20T16:22:27.447Z,12.70
2023-05-20T16:27:29.515Z,13.10
2023-05-20T16:30:01.312Z,15.80
2023-05-20T16:32:33.106Z,13.50
2023-05-20T16:35:05.521Z,13.60
2023-05-20T16:40:09.757Z,13.50
2023-05-20T16:42:43.607Z,13.70
2023-05-20T16:45:15.707Z,14.00
2023-05-20T16:47:47.458Z,14.30
2023-05-20T16:50:19.163Z,15.00
2023-05-20T16:52:51.135Z,13.50
2023-05-20T16:55:22.869Z,14.40
2023-05-20T16:57:54.594Z,14.30
2023-05-20T17:00:27.737Z,15.10
2023-05-20T17:02:59.525Z,14.20
2023-05-20T17:05:31.413Z,13.70
2023-05-20T17:08:03.360Z,14.40
2023-05-20T17:10:35.649Z,15.60
2023-05-20T17:15:38.188Z,14.10
2023-05-20T17:18:10.384Z,14.20
2023-05-20T17:20:42.153Z,14.50
2023-05-20T17:23:14.733Z,14.60
2023-05-20T17:25:46.577Z,15.10
2023-05-20T17:28:18.331Z,14.70
2023-05-20T17:30:50.070Z,14.50
2023-05-20T17:33:22.441Z,14.40
2023-05-20T17:35:54.221Z,14.40
2023-05-20T17:38:26.811Z,14.70
2023-05-20T17:40:58.979Z,16.10
2023-05-20T17:43:31.005Z,15.20
2023-05-20T17:46:02.737Z,14.30
2023-05-20T17:48:34.469Z,14.60
2023-05-20T17:51:06.745Z,15.60
2023-05-20T17:53:38.699Z,15.80
2023-05-20T17:56:10.549Z,14.30
2023-05-20T17:58:44.628Z,15.70
2023-05-20T18:01:17.929Z,14.80
2023-05-20T18:03:49.706Z,15.40
2023-05-20T18:06:21.576Z,16.10
2023-05-20T18:08:53.365Z,15.10
2023-05-20T18:11:27.239Z,15.80
2023-05-20T18:13:59.751Z,15.40
2023-05-20T18:16:32.139Z,14.60
2023-05-20T18:19:04.136Z,15.60
2023-05-20T18:21:37.505Z,14.90
2023-05-20T18:24:11.433Z,15.80
2023-05-20T18:26:43.176Z,15.70
2023-05-20T18:29:14.927Z,16.80
2023-05-20T18:31:46.787Z,17.40
2023-05-20T18:34:18.534Z,17.20
2023-05-20T18:36:50.475Z,17.00
2023-05-20T18:39:22.282Z,17.10
2023-05-20T18:41:54.164Z,17.50
2023-05-20T18:44:26.174Z,18.20
2023-05-20T18:46:58.896Z,17.80
2023-05-20T18:49:30.639Z,18.90
2023-05-20T18:52:02.578Z,18.30
2023-05-20T18:54:34.298Z,17.80
2023-05-20T18:57:08.073Z,19.10
2023-05-20T18:59:39.980Z,18.70
2023-05-20T19:02:11.859Z,18.20
2023-05-20T19:04:43.701Z,19.40
2023-05-20T19:07:15.387Z,18.40
2023-05-20T19:09:47.802Z,18.10
2023-05-20T19:12:19.857Z,18.60
2023-05-20T19:14:51.533Z,19.70
2023-05-20T19:17:24.218Z,20.40
2023-05-20T19:19:56.242Z,19.00
2023-05-20T19:22:27.973Z,19.30
2023-05-20T19:24:59.960Z,19.30
2023-05-20T19:27:31.646Z,19.00
2023-05-20T19:30:03.496Z,18.90
2023-05-20T19:32:36.174Z,19.00
2023-05-20T19:35:09.757Z,20.50
2023-05-20T19:37:42.887Z,19.40
2023-05-20T19:40:16.250Z,18.10
2023-05-20T19:42:48.180Z,19.20
2023-05-20T19:45:21.817Z,20.90
2023-05-20T19:47:56.208Z,20.50
2023-05-20T19:50:28.049Z,20.40
2023-05-20T19:52:59.891Z,18.70
2023-05-20T19:55:31.792Z,19.90
2023-05-20T19:58:03.477Z,18.80
2023-05-20T20:00:35.491Z,19.60
2023-05-20T20:03:08.054Z,20.60
2023-05-20T20:05:40.373Z,20.50
2023-05-20T20:08:12.376Z,19.70
2023-05-20T20:10:44.482Z,21.10
2023-05-20T20:13:16.406Z,20.60
2023-05-20T20:15:48.673Z,21.10
2023-05-20T20:18:20.423Z,21.70
2023-05-20T20:20:54.079Z,21.20
2023-05-20T20:23:25.882Z,20.80
2023-05-20T20:25:57.571Z,19.10
2023-05-20T20:28:30.113Z,21.30
2023-05-20T20:31:01.813Z,20.90
2023-05-20T20:33:33.981Z,21.50
2023-05-20T20:36:08.809Z,20.40
2023-05-20T20:38:46.958Z,21.20
2023-05-20T20:41:19.164Z,20.70
2023-05-20T20:43:50.883Z,21.50
2023-05-20T20:46:23.250Z,21.00
2023-05-20T20:48:55.129Z,21.10
2023-05-20T20:51:27.227Z,20.80
2023-05-20T20:56:31.703Z,21.50
2023-05-20T20:59:03.520Z,23.50
2023-05-20T21:01:37.628Z,22.00
2023-05-20T21:04:13.363Z,21.80
2023-05-20T21:06:46.257Z,22.80
2023-05-20T21:09:18.126Z,22.70
2023-05-20T21:11:50.066Z,21.60
2023-05-20T21:14:21.890Z,22.30
2023-05-20T21:16:54.109Z,22.90
2023-05-20T21:19:26.621Z,21.40
2023-05-20T21:24:29.272Z,21.80
2023-05-20T21:27:00.946Z,22.00
2023-05-20T21:29:33.858Z,22.00
2023-05-20T21:32:06.063Z,23.60
2023-05-20T21:34:37.868Z,22.90
2023-05-20T21:37:09.635Z,21.60
2023-05-20T21:39:41.830Z,23.30
2023-05-20T21:42:13.514Z,22.40
2023-05-20T21:44:45.357Z,22.30
2023-05-20T21:47:17.238Z,22.30
2023-05-20T21:49:49.149Z,22.90
2023-05-20T21:52:20.895Z,24.30
2023-05-20T21:54:52.611Z,23.50
2023-05-20T21:57:24.298Z,23.40
2023-05-20T21:59:56.271Z,21.70
2023-05-20T22:02:28.112Z,22.20
2023-05-20T22:05:01.159Z,23.80
2023-05-20T22:10:03.790Z,21.90
2023-05-20T22:12:37.928Z,22.30
2023-05-20T22:15:10.947Z,23.50
2023-05-20T22:17:43.536Z,22.40
2023-05-20T22:22:46.702Z,22.20
2023-05-20T22:25:18.516Z,22.30
2023-05-20T22:27:50.640Z,23.10
2023-05-20T22:30:22.283Z,22.60
2023-05-20T22:32:53.972Z,23.80
2023-05-20T22:35:25.805Z,23.10
2023-05-20T22:37:57.507Z,24.00
2023-05-20T22:40:29.496Z,23.70
2023-05-20T22:43:01.288Z,23.00
2023-05-20T22:45:32.991Z,23.10
2023-05-20T22:48:04.989Z,22.60
2023-05-20T22:50:36.751Z,22.90
2023-05-20T22:53:08.429Z,21.80
2023-05-20T22:55:40.955Z,24.20
2023-05-20T22:58:13.305Z,23.40
2023-05-20T23:00:45.773Z,22.90
2023-05-20T23:03:17.651Z,23.00
2023-05-20T23:05:49.902Z,22.80
2023-05-20T23:08:21.829Z,23.80
2023-05-20T23:10:53.508Z,23.20
2023-05-20T23:13:25.244Z,23.90
2023-05-20T23:15:57.791Z,25.70
2023-05-20T23:20:59.702Z,24.10
2023-05-20T23:23:32.358Z,24.20
2023-05-20T23:26:05.089Z,24.40
2023-05-20T23:28:36.863Z,24.60
2023-05-20T23:31:09.442Z,24.80
2023-05-20T23:33:41.444Z,24.10
2023-05-20T23:36:13.216Z,23.50
2023-05-20T23:38:45.719Z,25.40
2023-05-20T23:41:17.480Z,25.40
2023-05-20T23:43:49.175Z,25.30
2023-05-20T23:46:20.949Z,23.60
2023-05-20T23:48:53.785Z,23.70
2023-05-20T23:53:56.089Z,23.70
2023-05-20T23:56:27.875Z,23.60
2023-05-20T23:58:59.619Z,22.80
